Time;durP1;ratioP1;P1;durP2;ratioP2;P2;SDS_P1;SDS_P2;PMS_P1;PMS_P2;Temp;Humidity;BMP_temperature;BMP_pressure;BME280_temperature;BME280_humidity;BME280_pressure;Samples;Min_cycle;Max_cycle;Signal;HPM_P1;HPM_P2
2023/12/16 07:01:36;;;;;;;0.20;0.20;;;7.80;99.90;10.20;103631.00;;;;6129000;22;2105768;-72
2023/12/16 07:04:30;;;;;;;0.30;0.30;;;7.70;99.90;10.60;103643.00;;;;6246369;23;20600;-72
2023/12/16 07:07:13;;;;;;;0.37;0.37;;;7.80;99.90;10.60;103641.00;;;;6220482;23;20216;-72
2023/12/16 07:09:42;;;;;;;0.20;0.20;;;7.90;99.90;10.60;103621.00;;;;6221035;23;20166;-72
2023/12/16 07:12:17;;;;;;;0.40;0.40;;;7.90;99.90;9.90;103617.00;;;;6221022;23;20204;-72
2023/12/16 07:15:01;;;;;;;0.20;0.20;;;7.70;99.90;11.00;103646.00;;;;6220841;23;20295;-72
2023/12/16 07:17:40;;;;;;;0.23;0.23;;;8.00;99.90;10.80;103633.00;;;;6247357;23;20180;-72
2023/12/16 07:20:17;;;;;;;0.30;0.30;;;8.10;99.90;11.10;103622.00;;;;6221841;23;20158;-72
2023/12/16 07:22:52;;;;;;;0.30;0.30;;;8.20;99.90;11.70;103681.00;;;;6195564;23;20189;-72
2023/12/16 07:25:24;;;;;;;0.20;0.20;;;8.40;99.90;11.60;103670.00;;;;6247937;23;20152;-72
2023/12/16 07:27:55;;;;;;;0.20;0.20;;;8.50;99.90;11.50;103678.00;;;;6247390;23;20200;-71
2023/12/16 07:30:24;;;;;;;0.20;0.20;;;8.60;99.90;11.90;103629.00;;;;6246832;23;20187;-72
2023/12/16 07:33:05;;;;;;;0.20;0.20;;;8.80;99.90;11.50;103669.00;;;;6246924;23;20155;-71
2023/12/16 07:35:40;;;;;;;0.20;0.20;;;8.70;99.90;11.20;103666.00;;;;6221268;23;20140;-72
2023/12/16 07:38:17;;;;;;;0.20;0.20;;;8.60;99.90;11.10;103668.00;;;;6220544;23;20168;-70
2023/12/16 07:41:00;;;;;;;0.50;0.50;;;8.40;99.90;11.30;103675.00;;;;6247562;23;20144;-72
2023/12/16 07:43:41;;;;;;;0.40;0.40;;;8.60;99.90;11.20;103666.00;;;;6219866;23;20189;-71
2023/12/16 07:46:54;;;;;;;0.20;0.20;;;8.60;99.90;11.70;103680.00;;;;6247552;23;20140;-71
2023/12/16 07:49:25;;;;;;;0.20;0.20;;;8.80;99.90;12.10;103685.00;;;;6149863;23;20166;-72
2023/12/16 07:52:37;;;;;;;0.50;0.50;;;9.00;99.90;12.30;103689.00;;;;6220126;23;20192;-72
2023/12/16 07:55:29;;;;;;;0.20;0.20;;;9.10;99.90;12.80;103690.00;;;;6241202;23;20239;-72
2023/12/16 07:58:34;;;;;;;0.20;0.20;;;9.30;99.90;12.80;103694.00;;;;6163979;23;20161;-72
2023/12/16 08:02:05;;;;;;;0.20;0.20;;;9.40;99.90;12.10;103689.00;;;;6094866;23;20263;-72
2023/12/16 08:04:57;;;;;;;0.20;0.20;;;9.50;99.90;12.30;103632.00;;;;5985322;23;20259;-72
2023/12/16 08:07:50;;;;;;;0.20;0.20;;;9.30;99.90;11.50;103689.00;;;;6009885;23;20156;-72
2023/12/16 08:10:39;;;;;;;0.20;0.20;;;9.20;99.90;12.60;103688.00;;;;5986253;23;20174;-70
2023/12/16 08:13:44;;;;;;;0.20;0.20;;;9.30;99.90;12.70;103706.00;;;;6176192;23;20162;-73
2023/12/16 08:16:50;;;;;;;0.40;0.40;;;9.70;99.90;11.20;103687.00;;;;6220075;23;20716;-72
2023/12/16 08:20:05;;;;;;;0.20;0.20;;;9.20;99.90;11.60;103677.00;;;;6217987;23;20586;-72
2023/12/16 08:22:56;;;;;;;0.20;0.20;;;9.10;99.90;12.50;103686.00;;;;6218185;23;20255;-72
2023/12/16 08:25:50;;;;;;;0.20;0.20;;;9.30;99.90;13.20;103706.00;;;;6183136;23;20490;-72
2023/12/16 08:28:58;;;;;;;0.20;0.20;;;9.70;99.90;13.30;103708.00;;;;6199395;23;20473;-70
2023/12/16 08:31:47;;;;;;;0.20;0.20;;;9.80;99.90;12.80;103666.00;;;;6220630;23;20157;-69
2023/12/16 08:34:22;;;;;;;0.20;0.20;;;9.80;99.90;13.30;103711.00;;;;6148336;23;20588;-69
2023/12/16 08:37:11;;;;;;;0.20;0.20;;;9.90;99.90;13.50;103728.00;;;;6247255;23;20144;-69
2023/12/16 08:39:47;;;;;;;0.20;0.20;;;10.30;99.90;13.50;103711.00;;;;6217508;23;20142;-69
2023/12/16 08:42:45;;;;;;;0.20;0.20;;;10.20;99.90;13.90;103728.00;;;;6218913;23;20192;-70
2023/12/16 08:45:34;;;;;;;0.20;0.20;;;10.50;99.90;14.40;103714.00;;;;6207369;23;20162;-69
2023/12/16 08:48:04;;;;;;;0.20;0.20;;;10.80;99.90;12.30;103710.00;;;;6196886;23;20524;-69
2023/12/16 08:50:39;;;;;;;0.20;0.20;;;10.30;99.90;12.50;103706.00;;;;6220155;23;20142;-70
2023/12/16 08:53:28;;;;;;;0.20;0.20;;;10.10;99.90;12.40;103719.00;;;;6219618;23;20169;-69
2023/12/16 08:56:05;;;;;;;0.43;0.43;;;9.90;99.90;13.00;103673.00;;;;6219220;23;20163;-70
2023/12/16 08:59:02;;;;;;;3.00;2.63;;;10.10;99.90;12.60;103724.00;;;;6221288;23;20163;-69
2023/12/16 09:01:50;;;;;;;0.20;0.20;;;10.20;99.90;13.40;103721.00;;;;6231999;23;20237;-69
2023/12/16 09:04:34;;;;;;;1.00;1.00;;;10.40;99.90;12.20;103722.00;;;;6220017;23;20170;-69
2023/12/16 09:07:13;;;;;;;1.27;1.17;;;10.20;99.90;11.20;103710.00;;;;6220718;23;20186;-69
2023/12/16 09:10:11;;;;;;;0.20;0.20;;;9.80;99.90;12.10;103711.00;;;;6219551;23;20215;-69
2023/12/16 09:12:54;;;;;;;0.20;0.20;;;9.90;99.90;12.30;103700.00;;;;6201004;23;20163;-69
2023/12/16 09:15:33;;;;;;;0.20;0.20;;;9.90;99.90;11.80;103700.00;;;;6219436;23;20165;-69
2023/12/16 09:18:08;;;;;;;0.20;0.20;;;9.80;99.90;12.30;103700.00;;;;6246666;23;20135;-69
2023/12/16 09:20:44;;;;;;;0.43;0.43;;;9.80;99.90;12.00;103693.00;;;;6219470;23;20604;-70
2023/12/16 09:23:21;;;;;;;0.97;0.80;;;10.00;99.90;11.80;103678.00;;;;6219929;23;20253;-69
2023/12/16 09:26:14;;;;;;;1.97;1.43;;;9.80;99.90;11.10;103675.00;;;;6219276;23;20153;-69
2023/12/16 09:28:56;;;;;;;0.20;0.20;;;9.80;99.90;11.90;103658.00;;;;6175657;23;20190;-69
2023/12/16 09:31:37;;;;;;;0.20;0.20;;;9.90;99.90;13.10;103686.00;;;;6218317;23;20200;-69
2023/12/16 09:34:17;;;;;;;0.73;0.73;;;10.20;99.90;12.80;103670.00;;;;6218922;23;20141;-69
2023/12/16 09:37:00;;;;;;;2.33;1.63;;;10.40;99.90;12.20;103681.00;;;;6246062;23;20159;-69
2023/12/16 09:39:47;;;;;;;0.50;0.50;;;10.30;99.90;12.20;103694.00;;;;6219025;23;20154;-69
2023/12/16 09:42:36;;;;;;;4.00;1.93;;;10.30;99.90;11.70;103702.00;;;;6218277;23;20185;-73
2023/12/16 09:45:17;;;;;;;2.10;1.23;;;10.10;99.90;12.30;103699.00;;;;6219129;23;20438;-71
2023/12/16 09:48:14;;;;;;;1.13;1.13;;;10.30;99.90;12.60;103710.00;;;;6220407;23;20145;-69
2023/12/16 09:50:44;;;;;;;0.40;0.40;;;10.30;99.90;12.70;103718.00;;;;6244753;23;20166;-69
2023/12/16 09:53:15;;;;;;;10.80;10.03;;;10.40;99.90;12.60;103722.00;;;;6194238;23;20161;-68
2023/12/16 09:55:49;;;;;;;0.73;0.73;;;10.60;99.90;11.80;103693.00;;;;6218581;23;20213;-68
2023/12/16 09:58:36;;;;;;;0.40;0.40;;;10.30;99.90;11.50;103707.00;;;;6219292;23;20219;-68
2023/12/16 10:01:20;;;;;;;1.80;0.57;;;10.20;99.90;11.80;103699.00;;;;6193535;23;20476;-68
2023/12/16 10:03:50;;;;;;;0.20;0.20;;;10.20;99.90;12.20;103703.00;;;;6218127;23;20184;-68
2023/12/16 10:06:48;;;;;;;0.70;0.70;;;10.20;99.90;11.50;103699.00;;;;6246555;23;20160;-68
2023/12/16 10:09:47;;;;;;;5.23;1.17;;;10.20;99.90;12.00;103709.00;;;;6069066;23;20500;-68
2023/12/16 10:12:48;;;;;;;3.03;1.80;;;10.40;99.90;11.70;103698.00;;;;6062866;23;20239;-68
2023/12/16 10:19:34;;;;;;;9.60;2.57;;;10.40;99.90;12.00;103695.00;;;;6052290;23;20172;-68
2023/12/16 10:34:26;;;;;;;0.20;0.20;;;10.00;99.90;13.00;103694.00;;;;4313606;27;23724019;-70
2023/12/16 10:37:59;;;;;;;1.83;0.93;;;10.40;99.90;11.50;103681.00;;;;5119468;28;20192;-70
2023/12/16 10:40:51;;;;;;;2.30;2.20;;;10.50;99.90;12.20;103684.00;;;;5087979;28;20632;-70
2023/12/16 10:43:18;;;;;;;0.20;0.20;;;10.60;99.90;12.10;103671.00;;;;5024574;28;20307;-70
2023/12/16 10:46:09;;;;;;;1.27;1.17;;;10.60;99.90;13.00;103678.00;;;;5121595;28;20201;-70
2023/12/16 10:48:49;;;;;;;1.27;0.97;;;10.90;99.90;12.50;103667.00;;;;5105252;28;20198;-70
2023/12/16 10:51:21;;;;;;;0.60;0.60;;;10.90;99.90;11.70;103671.00;;;;5093421;28;20694;-69
2023/12/16 10:54:34;;;;;;;2.47;1.10;;;10.50;99.90;12.30;103659.00;;;;5112443;28;20189;-70
2023/12/16 10:57:57;;;;;;;0.67;0.67;;;10.60;99.90;12.30;103667.00;;;;5109918;28;20650;-70
2023/12/16 11:01:14;;;;;;;0.60;0.60;;;10.50;99.90;11.80;103661.00;;;;5067691;28;20194;-70
2023/12/16 11:04:08;;;;;;;0.67;0.67;;;10.40;99.90;12.30;103668.00;;;;5038054;28;20199;-70
2023/12/16 11:07:00;;;;;;;0.30;0.30;;;10.60;99.90;12.40;103654.00;;;;5053970;28;20194;-71
2023/12/16 11:09:27;;;;;;;0.20;0.20;;;10.50;99.90;12.30;103645.00;;;;5090152;28;20206;-71
2023/12/16 11:12:03;;;;;;;0.20;0.20;;;10.50;99.90;12.10;103659.00;;;;5111720;28;20192;-70
2023/12/16 11:15:13;;;;;;;0.10;0.10;;;10.50;99.90;14.00;103643.00;;;;5101622;28;20186;-70
2023/12/16 11:18:50;;;;;;;7.10;2.37;;;10.80;99.90;12.50;103652.00;;;;5072292;28;20197;-70
2023/12/16 11:22:16;;;;;;;1.07;0.73;;;11.00;99.90;13.30;103629.00;;;;5044267;28;20262;-70
2023/12/16 11:25:20;;;;;;;8.80;1.77;;;10.90;99.90;12.10;103640.00;;;;5117770;28;20203;-71
2023/12/16 11:28:19;;;;;;;0.20;0.20;;;10.70;99.90;13.70;103647.00;;;;5034957;28;20205;-71
2023/12/16 11:31:19;;;;;;;1.10;0.87;;;11.00;99.90;13.10;103641.00;;;;5062165;28;20197;-71
2023/12/16 11:34:49;;;;;;;0.20;0.20;;;11.20;99.90;13.60;103639.00;;;;5048224;28;20657;-71
2023/12/16 11:41:10;;;;;;;6.33;2.87;;;11.10;99.90;12.70;103573.00;;;;4981840;28;20202;-71
2023/12/16 11:48:26;;;;;;;0.20;0.20;;;10.80;99.90;12.30;103627.00;;;;4957268;28;20201;-71
2023/12/16 11:52:23;;;;;;;;;;;;;;;;;;;;;
2023/12/16 11:55:16;;;;;;;0.43;0.43;;;11.00;99.90;13.20;103626.00;;;;4870861;29;20200;-71
2023/12/16 11:58:09;;;;;;;11.97;1.70;;;11.00;99.90;11.80;103623.00;;;;4878589;29;20210;-71
2023/12/16 12:01:07;;;;;;;7.10;2.70;;;10.60;99.90;12.00;103598.00;;;;4850148;29;20205;-71
2023/12/16 12:03:55;;;;;;;5.47;1.67;;;10.60;99.90;12.50;103611.00;;;;4851288;29;20214;-71
2023/12/16 12:06:59;;;;;;;0.20;0.20;;;10.60;99.90;13.30;103612.00;;;;4895287;29;20202;-71
2023/12/16 12:10:28;;;;;;;3.03;2.83;;;10.90;99.90;12.30;103612.00;;;;4884598;29;20346;-71
2023/12/16 12:13:22;;;;;;;1.10;0.90;;;10.80;99.90;12.40;103611.00;;;;4972425;28;20226;-71
2023/12/16 12:16:06;;;;;;;2.30;2.20;;;10.70;99.90;13.70;103610.00;;;;4970117;28;20204;-71
2023/12/16 12:19:11;;;;;;;2.97;1.60;;;11.00;99.90;11.90;103614.00;;;;5013895;28;20770;-70
2023/12/16 12:22:11;;;;;;;3.47;2.03;;;10.60;99.90;12.70;103610.00;;;;4993235;28;20273;-69
2023/12/16 12:24:53;;;;;;;0.43;0.43;;;10.60;99.90;11.90;103617.00;;;;4994468;28;20249;-70
2023/12/16 12:28:09;;;;;;;6.90;2.43;;;10.50;99.90;12.40;103604.00;;;;5037626;28;20189;-69
2023/12/16 12:31:43;;;;;;;0.20;0.20;;;10.60;99.90;13.00;103620.00;;;;5104230;28;20201;-70
2023/12/16 12:34:42;;;;;;;4.23;3.90;;;10.60;99.90;13.30;103562.00;;;;5090554;28;20550;-69
2023/12/16 12:37:48;;;;;;;3.60;3.00;;;10.80;99.90;11.80;103600.00;;;;5032717;28;20231;-69
2023/12/16 12:40:24;;;;;;;0.20;0.20;;;10.50;99.90;13.30;103593.00;;;;5009881;28;20204;-70
2023/12/16 12:42:59;;;;;;;0.20;0.20;;;10.60;99.90;13.00;103600.00;;;;5013072;28;20552;-71
2023/12/16 12:45:49;;;;;;;0.20;0.20;;;10.70;99.90;13.60;103589.00;;;;5015967;28;20245;-70
2023/12/16 12:48:52;;;;;;;0.20;0.20;;;11.00;99.90;13.50;103578.00;;;;5008886;28;20315;-70
2023/12/16 12:51:29;;;;;;;1.20;0.80;;;11.00;99.90;14.00;103574.00;;;;5005371;28;20610;-70
2023/12/16 12:53:57;;;;;;;0.30;0.30;;;11.10;99.90;14.60;103578.00;;;;5072164;28;20231;-70
2023/12/16 12:56:49;;;;;;;0.93;0.93;;;11.60;99.90;13.10;103573.00;;;;5106269;28;20748;-70
2023/12/16 12:59:24;;;;;;;0.20;0.20;;;11.20;99.90;14.40;103560.00;;;;5097552;28;20196;-70
2023/12/16 13:02:08;;;;;;;5.10;1.47;;;11.30;99.90;13.20;103572.00;;;;5107577;28;20178;-70
2023/12/16 13:05:03;;;;;;;2.80;1.37;;;11.10;99.90;14.70;103577.00;;;;5106704;28;20178;-70
2023/12/16 13:07:40;;;;;;;0.20;0.20;;;11.50;99.90;14.30;103572.00;;;;5090218;28;20200;-70
2023/12/16 13:10:20;;;;;;;0.30;0.30;;;11.60;99.90;13.60;103562.00;;;;5100551;28;20624;-70
2023/12/16 13:12:57;;;;;;;0.27;0.27;;;11.30;99.90;13.30;103555.00;;;;5089664;28;20262;-70
2023/12/16 13:15:52;;;;;;;0.40;0.40;;;11.00;99.90;13.40;103556.00;;;;5092257;28;20185;-70
2023/12/16 13:18:31;;;;;;;0.30;0.30;;;11.10;99.90;14.10;103549.00;;;;5095292;28;20186;-70
2023/12/16 13:21:20;;;;;;;1.23;0.97;;;11.20;99.90;13.40;103546.00;;;;5089744;28;20181;-71
2023/12/16 13:23:51;;;;;;;0.20;0.20;;;11.20;99.90;13.20;103546.00;;;;5084008;28;20589;-71
2023/12/16 13:26:25;;;;;;;0.87;0.87;;;11.10;99.90;13.60;103546.00;;;;5103786;28;20195;-71
2023/12/16 13:28:59;;;;;;;0.20;0.20;;;10.90;99.90;14.10;103539.00;;;;5084794;28;20263;-71
2023/12/16 13:31:34;;;;;;;0.50;0.50;;;11.20;99.90;13.00;103509.00;;;;5109321;27;20672;-71
2023/12/16 13:34:08;;;;;;;0.20;0.20;;;11.00;99.90;14.10;103536.00;;;;5093840;28;20201;-71
2023/12/16 13:36:42;;;;;;;0.80;0.80;;;11.20;99.90;13.50;103538.00;;;;5106843;28;20190;-71
2023/12/16 13:39:20;;;;;;;0.67;0.67;;;11.10;99.90;13.20;103543.00;;;;5100028;28;20669;-71
2023/12/16 13:41:51;;;;;;;0.30;0.30;;;10.90;99.90;13.80;103530.00;;;;5106433;28;20188;-71
2023/12/16 13:44:25;;;;;;;0.90;0.87;;;11.10;99.90;13.00;103531.00;;;;5113816;28;20741;-70
2023/12/16 13:47:02;;;;;;;0.77;0.77;;;11.00;99.90;12.50;103496.00;;;;5094241;28;20189;-71
2023/12/16 13:49:36;;;;;;;0.20;0.20;;;10.70;99.90;12.70;103482.00;;;;5112638;28;20192;-71
2023/12/16 13:52:10;;;;;;;0.20;0.20;;;10.60;99.90;13.20;103525.00;;;;5102848;28;20207;-71
2023/12/16 13:54:46;;;;;;;0.50;0.50;;;10.70;99.90;13.00;103533.00;;;;5103043;28;20731;-71
2023/12/16 13:57:17;;;;;;;0.90;0.90;;;10.70;99.90;12.80;103526.00;;;;5108486;28;20229;-71
2023/12/16 13:59:49;;;;;;;0.30;0.30;;;10.70;99.90;12.70;103533.00;;;;5097742;28;20185;-70
2023/12/16 14:02:20;;;;;;;0.30;0.30;;;10.60;99.90;13.90;103535.00;;;;5105397;28;20198;-71
2023/12/16 14:04:52;;;;;;;0.20;0.20;;;10.90;99.90;13.90;103531.00;;;;5096794;28;20706;-71
2023/12/16 14:07:24;;;;;;;0.20;0.20;;;10.90;99.90;12.90;103523.00;;;;5092221;28;20202;-71
2023/12/16 14:09:58;;;;;;;0.40;0.40;;;10.70;99.90;13.00;103473.00;;;;5101022;28;20647;-71
2023/12/16 14:12:30;;;;;;;0.27;0.27;;;10.70;99.90;12.90;103515.00;;;;5093525;28;20195;-70
2023/12/16 14:14:58;;;;;;;0.20;0.20;;;10.70;99.90;12.70;103521.00;;;;5111614;28;20245;-71
2023/12/16 14:17:24;;;;;;;1.53;1.50;;;10.70;99.90;12.00;103491.00;;;;5098310;28;20195;-70
2023/12/16 14:19:55;;;;;;;0.87;0.70;;;10.40;99.90;12.20;103526.00;;;;5097705;28;20183;-71
2023/12/16 14:22:21;;;;;;;0.20;0.20;;;10.40;99.90;13.20;103495.00;;;;5095500;28;20193;-71
2023/12/16 14:24:47;;;;;;;7.83;1.13;;;10.50;99.90;13.40;103508.00;;;;5104835;28;20268;-71
2023/12/16 14:27:19;;;;;;;0.20;0.20;;;10.80;99.90;13.70;103509.00;;;;5111648;28;20188;-70
2023/12/16 14:29:48;;;;;;;0.33;0.33;;;10.80;99.90;13.20;103504.00;;;;5096648;28;20198;-71
2023/12/16 14:32:14;;;;;;;0.70;0.70;;;10.90;99.90;12.30;103502.00;;;;5105682;28;20660;-71
2023/12/16 14:34:40;;;;;;;0.20;0.20;;;10.60;99.90;12.90;103512.00;;;;5097557;28;20224;-71
2023/12/16 14:37:11;;;;;;;0.33;0.33;;;10.50;99.90;12.80;103513.00;;;;5109262;28;20539;-70
2023/12/16 14:39:45;;;;;;;0.30;0.30;;;10.50;99.90;13.90;103506.00;;;;5096194;28;20182;-71
2023/12/16 14:42:19;;;;;;;0.67;0.57;;;10.80;99.90;12.90;103509.00;;;;5111511;28;20633;-71
2023/12/16 14:44:53;;;;;;;0.53;0.53;;;10.80;99.90;13.40;103507.00;;;;5085131;28;20634;-71
2023/12/16 14:47:27;;;;;;;0.20;0.20;;;10.80;99.90;13.80;103499.00;;;;5107119;28;20192;-71
2023/12/16 14:50:02;;;;;;;0.20;0.20;;;11.10;99.90;13.20;103499.00;;;;5086547;28;20181;-71
2023/12/16 14:52:36;;;;;;;0.27;0.27;;;10.90;99.90;13.60;103502.00;;;;5092495;28;20678;-71
2023/12/16 14:55:10;;;;;;;0.80;0.80;;;10.90;99.90;13.40;103498.00;;;;5101484;28;20196;-71
2023/12/16 14:57:44;;;;;;;0.20;0.20;;;11.10;99.90;12.80;103498.00;;;;5103029;28;20195;-71
2023/12/16 15:00:31;;;;;;;0.20;0.20;;;10.80;99.90;13.90;103498.00;;;;5105148;28;20181;-71
2023/12/16 15:03:09;;;;;;;0.60;0.60;;;11.00;99.90;12.30;103489.00;;;;5092438;28;20189;-71
2023/12/16 15:05:35;;;;;;;0.20;0.20;;;10.70;99.90;13.10;103499.00;;;;5091015;28;20189;-71
2023/12/16 15:08:35;;;;;;;0.20;0.20;;;10.70;99.90;13.70;103511.00;;;;5099190;28;20201;-71
2023/12/16 15:11:20;;;;;;;0.20;0.20;;;10.80;99.90;14.00;103499.00;;;;5093141;28;20332;-71
2023/12/16 15:14:14;;;;;;;1.33;1.30;;;11.10;99.90;13.70;103504.00;;;;5101609;28;20572;-71
2023/12/16 15:17:09;;;;;;;0.20;0.20;;;11.30;99.90;14.00;103505.00;;;;5034234;28;20551;-71
2023/12/16 15:20:15;;;;;;;1.03;1.03;;;11.30;99.90;13.40;103495.00;;;;5033043;28;20218;-71
2023/12/16 15:23:08;;;;;;;0.20;0.20;;;11.10;99.90;14.40;103510.00;;;;5080698;28;20284;-71
2023/12/16 15:26:00;;;;;;;0.20;0.20;;;11.40;99.90;14.10;103507.00;;;;5092618;28;20210;-71
2023/12/16 15:28:31;;;;;;;0.73;0.73;;;11.60;99.90;14.00;103500.00;;;;5107742;28;20190;-71
2023/12/16 15:30:58;;;;;;;0.20;0.20;;;11.30;99.90;13.40;103503.00;;;;5096549;28;20186;-71
2023/12/16 15:33:29;;;;;;;0.20;0.20;;;11.10;99.90;13.10;103498.00;;;;5094797;28;20608;-71
2023/12/16 15:36:05;;;;;;;0.20;0.20;;;10.90;99.90;13.60;103494.00;;;;5099883;28;20185;-71
2023/12/16 15:38:39;;;;;;;0.40;0.40;;;10.90;99.90;13.10;103487.00;;;;5104447;28;20182;-71
2023/12/16 15:41:29;;;;;;;0.20;0.20;;;10.90;99.90;14.00;103490.00;;;;5089587;28;20185;-71
2023/12/16 15:44:09;;;;;;;0.50;0.50;;;11.00;99.90;14.20;103503.00;;;;5099901;28;20239;-71
2023/12/16 15:46:43;;;;;;;1.63;1.53;;;11.30;99.90;14.00;103505.00;;;;5107791;28;20183;-71
2023/12/16 15:49:17;;;;;;;0.20;0.20;;;11.40;99.90;14.10;103501.00;;;;5105345;28;20186;-71
2023/12/16 15:52:00;;;;;;;0.40;0.40;;;11.30;99.90;14.50;103492.00;;;;5096799;28;20202;-71
2023/12/16 15:54:36;;;;;;;1.20;1.20;;;11.50;99.90;14.10;103511.00;;;;5098437;28;20216;-71
2023/12/16 15:57:14;;;;;;;2.53;0.83;;;11.40;99.90;14.60;103503.00;;;;5102504;28;20193;-71
2023/12/16 16:00:30;;;;;;;1.75;0.65;;;11.70;99.90;13.80;103510.00;;;;5104539;28;20416;-71
2023/12/16 16:03:05;;;;;;;0.20;0.20;;;11.50;99.90;14.20;103496.00;;;;5100650;27;20303;-71
2023/12/16 16:06:16;;;;;;;0.50;0.50;;;11.50;99.90;14.10;103508.00;;;;5104571;28;20201;-71
2023/12/16 16:09:05;;;;;;;0.70;0.70;;;11.50;99.90;14.70;103510.00;;;;5098272;28;20186;-71
2023/12/16 16:11:48;;;;;;;0.20;0.20;;;11.70;99.90;14.80;103522.00;;;;5106987;28;20209;-71
2023/12/16 16:14:22;;;;;;;1.80;1.40;;;11.90;99.90;13.90;103513.00;;;;5096132;28;20205;-71
2023/12/16 16:17:17;;;;;;;0.20;0.20;;;11.80;99.90;13.80;103506.00;;;;5102869;28;20193;-71
2023/12/16 16:19:51;;;;;;;0.70;0.70;;;11.40;99.90;14.80;103495.00;;;;5088659;28;20634;-71
2023/12/16 16:22:42;;;;;;;0.30;0.30;;;11.60;99.90;14.70;103502.00;;;;5093733;28;20252;-71
2023/12/16 16:25:49;;;;;;;0.20;0.20;;;11.80;99.90;14.30;103506.00;;;;5067899;28;20691;-71
2023/12/16 16:28:43;;;;;;;0.20;0.20;;;11.50;99.90;14.40;103512.00;;;;5120585;27;20197;-71
2023/12/16 16:31:49;;;;;;;2.00;1.50;;;11.60;99.90;14.90;103477.00;;;;5039004;28;20272;-71
2023/12/16 16:34:38;;;;;;;1.37;1.27;;;11.80;99.90;13.70;103518.00;;;;5049089;28;20193;-71
2023/12/16 16:37:23;;;;;;;0.20;0.20;;;11.70;99.90;14.20;103488.00;;;;5089123;27;20201;-71
2023/12/16 16:40:18;;;;;;;4.63;4.20;;;11.60;99.90;12.70;103508.00;;;;5099198;28;20281;-71
2023/12/16 16:43:10;;;;;;;4.80;3.00;;;11.30;99.90;13.50;103529.00;;;;5070312;28;20258;-71
2023/12/16 16:45:39;;;;;;;6.27;2.37;;;11.10;99.90;13.90;103518.00;;;;5105270;28;20191;-71
2023/12/16 16:48:30;;;;;;;4.87;2.57;;;11.30;99.90;14.00;103530.00;;;;5113651;28;20178;-73
2023/12/16 16:51:09;;;;;;;0.20;0.20;;;11.50;99.90;13.90;103501.00;;;;5111334;28;20261;-71
2023/12/16 16:54:16;;;;;;;7.33;1.53;;;11.30;99.90;13.00;103530.00;;;;5100726;28;20184;-71
2023/12/16 16:57:26;;;;;;;0.50;0.50;;;11.20;99.90;12.80;103526.00;;;;5111948;27;20200;-71
2023/12/16 17:00:22;;;;;;;0.30;0.30;;;11.10;99.90;13.40;103514.00;;;;5113059;28;20252;-71
2023/12/16 17:03:19;;;;;;;3.60;2.63;;;10.90;99.90;13.10;103540.00;;;;5092982;27;20283;-71
2023/12/16 17:06:16;;;;;;;2.27;2.07;;;11.00;99.90;12.90;103536.00;;;;5107821;27;20690;-71
2023/12/16 17:09:23;;;;;;;0.77;0.70;;;11.00;99.90;14.20;103534.00;;;;5087751;28;20532;-71
2023/12/16 17:12:23;;;;;;;0.20;0.20;;;11.30;99.90;14.80;103518.00;;;;5112247;27;20212;-71
2023/12/16 17:15:29;;;;;;;0.23;0.23;;;11.70;99.90;14.20;103522.00;;;;5103394;27;20190;-71
2023/12/16 17:21:26;;;;;;;1.20;1.10;;;11.60;99.90;14.50;103517.00;;;;5108993;28;20195;-71
2023/12/16 17:24:37;;;;;;;2.70;2.50;;;11.60;99.90;12.80;103511.00;;;;5106821;28;20188;-71
2023/12/16 17:27:49;;;;;;;7.60;1.67;;;11.20;99.90;13.60;103497.00;;;;5095161;28;20198;-72
2023/12/16 17:30:55;;;;;;;0.50;0.50;;;11.20;99.90;13.40;103512.00;;;;5085331;28;20203;-71
2023/12/16 17:34:08;;;;;;;4.63;2.53;;;11.30;99.90;12.50;103516.00;;;;5081651;28;20309;-71
2023/12/16 17:37:16;;;;;;;1.53;1.43;;;10.90;99.90;13.00;103526.00;;;;5099633;28;20190;-71
2023/12/16 17:40:12;;;;;;;3.87;2.73;;;10.80;99.90;12.30;103521.00;;;;5095917;28;20178;-71
2023/12/16 17:43:21;;;;;;;1.17;1.07;;;10.70;99.90;13.20;103532.00;;;;5099776;28;20214;-71
2023/12/16 17:46:28;;;;;;;0.80;0.53;;;10.80;99.90;13.30;103525.00;;;;5101205;28;20224;-72
2023/12/16 17:49:32;;;;;;;0.80;0.47;;;11.00;99.90;13.00;103513.00;;;;5113787;27;20564;-71
2023/12/16 17:52:42;;;;;;;9.33;5.20;;;10.90;99.90;13.50;103501.00;;;;5104606;27;20220;-71
2023/12/16 17:56:04;;;;;;;7.03;5.40;;;11.10;99.90;12.50;103517.00;;;;5096717;28;20208;-71
2023/12/16 17:58:58;;;;;;;0.20;0.20;;;10.80;99.90;13.20;103516.00;;;;5097779;28;20623;-71
2023/12/16 18:01:48;;;;;;;0.80;0.80;;;11.00;99.90;13.90;103486.00;;;;5103206;28;20182;-71
2023/12/16 18:04:39;;;;;;;1.90;1.57;;;11.30;99.90;13.70;103477.00;;;;5091645;28;20705;-71
2023/12/16 18:07:24;;;;;;;1.77;1.67;;;11.50;99.90;12.70;103482.00;;;;5091310;28;20177;-71
2023/12/16 18:10:13;;;;;;;2.57;2.07;;;11.10;99.90;12.30;103477.00;;;;5092037;28;20635;-71
2023/12/16 18:12:53;;;;;;;6.60;3.67;;;10.90;99.90;12.00;103486.00;;;;5095602;28;20216;-71
2023/12/16 18:15:45;;;;;;;2.33;2.07;;;10.70;99.90;12.10;103486.00;;;;5096033;28;20245;-71
2023/12/16 18:18:51;;;;;;;4.47;2.23;;;10.80;99.90;12.50;103465.00;;;;5102781;28;20284;-71
2023/12/16 18:21:48;;;;;;;3.20;2.87;;;10.70;99.90;11.50;103450.00;;;;5102635;28;20266;-71
2023/12/16 18:24:55;;;;;;;0.53;0.53;;;10.60;99.90;12.90;103496.00;;;;5100871;27;20200;-71
2023/12/16 18:28:03;;;;;;;0.33;0.30;;;10.70;99.90;13.60;103494.00;;;;5090175;28;20196;-71
2023/12/16 18:31:13;;;;;;;2.93;2.73;;;11.00;99.90;13.60;103473.00;;;;5100690;28;20551;-71
2023/12/16 18:33:52;;;;;;;1.70;1.27;;;11.20;99.90;13.80;103453.00;;;;5096954;28;20187;-71
2023/12/16 18:36:59;;;;;;;0.40;0.40;;;11.40;99.90;14.30;103443.00;;;;5094714;28;20282;-71
2023/12/16 18:39:45;;;;;;;0.20;0.20;;;11.50;99.90;13.40;103449.00;;;;5090883;28;20189;-71
2023/12/16 18:42:53;;;;;;;0.20;0.20;;;11.30;99.90;13.90;103448.00;;;;5096693;28;20197;-71
2023/12/16 18:46:08;;;;;;;2.23;2.03;;;11.40;99.90;13.70;103465.00;;;;5111802;28;20654;-71
2023/12/16 18:48:57;;;;;;;1.50;1.40;;;11.30;99.90;12.80;103469.00;;;;5098121;28;20646;-71
2023/12/16 18:52:01;;;;;;;1.33;1.33;;;11.40;99.90;13.20;103422.00;;;;5101286;28;20192;-71
2023/12/16 18:54:43;;;;;;;4.33;3.07;;;11.20;99.90;12.30;103477.00;;;;5101550;28;20209;-71
2023/12/16 18:57:26;;;;;;;3.70;2.73;;;11.00;99.90;12.30;103500.00;;;;5096650;28;20280;-71
2023/12/16 19:00:32;;;;;;;3.03;2.73;;;10.90;99.90;12.50;103469.00;;;;5098331;28;20179;-71
2023/12/16 19:03:04;;;;;;;2.43;2.10;;;10.80;99.90;12.20;103507.00;;;;5108841;28;20185;-71
2023/12/16 19:05:45;;;;;;;5.73;3.03;;;10.80;99.90;12.30;103504.00;;;;5094775;28;20187;-71
2023/12/16 19:08:25;;;;;;;3.67;3.23;;;10.90;99.90;12.00;103504.00;;;;5105127;28;20765;-71
2023/12/16 19:11:19;;;;;;;4.13;3.80;;;10.80;99.90;12.60;103491.00;;;;5100012;28;20265;-71
2023/12/16 19:14:08;;;;;;;4.50;4.10;;;10.70;99.90;11.90;103492.00;;;;5095641;28;20177;-71
2023/12/16 19:17:14;;;;;;;2.60;2.33;;;10.80;99.90;11.90;103527.00;;;;5065599;28;20197;-71
2023/12/16 19:20:15;;;;;;;5.80;4.73;;;10.70;99.90;11.60;103478.00;;;;5111683;28;20185;-71
2023/12/16 19:23:13;;;;;;;4.43;2.73;;;10.70;99.90;12.30;103504.00;;;;5102958;28;20201;-71
2023/12/16 19:26:08;;;;;;;7.63;5.60;;;10.80;99.90;11.90;103529.00;;;;5107189;28;20196;-72
2023/12/16 19:29:11;;;;;;;7.13;5.10;;;10.70;99.90;12.70;103515.00;;;;5094151;28;20193;-71
2023/12/16 19:32:08;;;;;;;4.87;4.47;;;10.90;99.90;12.90;103512.00;;;;5115920;27;20284;-71
2023/12/16 19:35:05;;;;;;;2.80;2.53;;;11.00;99.90;12.50;103507.00;;;;5095533;28;20257;-71
2023/12/16 19:37:52;;;;;;;1.73;1.63;;;10.90;99.90;12.60;103514.00;;;;5099900;28;20531;-71
2023/12/16 19:41:01;;;;;;;1.50;1.40;;;10.90;99.90;13.00;103524.00;;;;5109980;28;20194;-71
2023/12/16 19:43:50;;;;;;;3.23;3.03;;;10.80;99.90;12.30;103516.00;;;;5097763;28;20668;-71
2023/12/16 19:46:59;;;;;;;3.47;3.17;;;10.80;99.90;12.00;103511.00;;;;5032161;28;20203;-71
2023/12/16 19:49:52;;;;;;;1.80;1.70;;;10.80;99.90;12.20;103506.00;;;;4995889;28;20295;-71
2023/12/16 19:52:46;;;;;;;5.90;4.57;;;10.80;99.90;12.10;103462.00;;;;4957708;28;20325;-71